Time;durP1;ratioP1;P1;durP2;ratioP2;P2;SDS_P1;SDS_P2;PMS_P1;PMS_P2;Temp;Humidity;BMP_temperature;BMP_pressure;BME280_temperature;BME280_humidity;BME280_pressure;Samples;Min_cycle;Max_cycle;Signal;HPM_P1;HPM_P2
2022/09/29 00:03:33;;;;;;;29.60;18.20;;;6.70;99.90;;;;;;2615143;54;20412;-71
2022/09/29 00:09:20;;;;;;;24.45;19.30;;;6.60;99.90;;;;;;2616141;54;20262;-71
2022/09/29 00:15:09;;;;;;;27.20;19.00;;;6.60;99.90;;;;;;2615096;54;20173;-70
2022/09/29 00:27:18;;;;;;;25.83;18.33;;;6.80;99.90;;;;;;2615743;54;20437;-72
2022/09/29 00:33:06;;;;;;;28.20;19.87;;;6.60;99.90;;;;;;2614521;54;20148;-71
2022/09/29 00:38:55;;;;;;;30.47;20.23;;;6.80;99.90;;;;;;2615832;54;20154;-70
2022/09/29 00:54:43;;;;;;;31.85;19.25;;;7.00;99.90;;;;;;2615837;54;20399;-71
2022/09/29 01:00:31;;;;;;;31.67;19.47;;;6.90;99.90;;;;;;2615750;54;20403;-71
2022/09/29 01:06:24;;;;;;;29.10;20.03;;;6.80;99.90;;;;;;2614354;54;20398;-71
2022/09/29 01:12:12;;;;;;;29.23;20.10;;;6.50;99.90;;;;;;2615897;54;20396;-71
2022/09/29 01:18:01;;;;;;;31.90;19.53;;;6.30;99.90;;;;;;2615713;54;20146;-71
2022/09/29 01:37:06;;;;;;;26.73;18.17;;;6.30;99.90;;;;;;2615106;54;20406;-71
2022/09/29 01:49:33;;;;;;;26.83;18.50;;;6.00;99.90;;;;;;2615301;46;20457;-70
2022/09/29 01:55:25;;;;;;;31.90;19.77;;;6.00;99.90;;;;;;2614996;54;20398;-71
2022/09/29 02:01:15;;;;;;;35.80;19.90;;;6.40;99.90;;;;;;2615467;54;20370;-71
2022/09/29 02:07:09;;;;;;;31.20;19.80;;;6.30;99.90;;;;;;2615930;39;20527;-72
2022/09/29 02:13:00;;;;;;;29.10;20.60;;;6.00;99.90;;;;;;2615571;54;20364;-71
2022/09/29 02:25:37;;;;;;;32.83;19.70;;;5.80;99.90;;;;;;2615309;54;20350;-70
2022/09/29 02:31:25;;;;;;;26.70;19.10;;;5.70;99.90;;;;;;2614708;39;20728;-71
2022/09/29 02:50:44;;;;;;;36.27;22.13;;;5.70;99.90;;;;;;2614603;54;20155;-69
2022/09/29 03:07:34;;;;;;;31.42;19.80;;;6.20;99.90;;;;;;2615385;54;20395;-70
2022/09/29 03:13:21;;;;;;;31.70;21.52;;;6.10;99.90;;;;;;2614326;54;20429;-71
2022/09/29 03:19:09;;;;;;;25.70;19.13;;;5.80;99.90;;;;;;2614872;54;20143;-72
2022/09/29 03:24:56;;;;;;;28.20;19.53;;;5.50;99.90;;;;;;2615210;54;20366;-71
2022/09/29 03:30:44;;;;;;;31.23;19.93;;;5.30;99.90;;;;;;2615091;54;20250;-71
2022/09/29 03:36:32;;;;;;;26.53;19.50;;;5.10;99.90;;;;;;2616030;54;20130;-71
2022/09/29 03:42:23;;;;;;;29.50;19.37;;;5.30;99.90;;;;;;2616013;54;20759;-71
2022/09/29 03:51:32;;;;;;;30.47;20.13;;;5.00;99.90;;;;;;2616213;54;20430;-71
2022/09/29 03:57:20;;;;;;;27.17;18.53;;;5.10;99.90;;;;;;2615489;54;20150;-72
2022/09/29 04:03:08;;;;;;;38.73;22.50;;;5.30;99.90;;;;;;2615497;54;20118;-71
2022/09/29 04:08:56;;;;;;;28.63;20.60;;;5.60;99.90;;;;;;2615859;54;20386;-70
2022/09/29 04:14:44;;;;;;;29.90;20.38;;;5.40;99.90;;;;;;2615977;39;20252;-70
2022/09/29 04:20:32;;;;;;;28.10;19.77;;;5.00;99.90;;;;;;2616156;54;20163;-71
2022/09/29 04:26:19;;;;;;;41.53;20.80;;;5.00;99.90;;;;;;2615919;46;20379;-70
2022/09/29 04:32:07;;;;;;;31.58;20.65;;;5.00;99.90;;;;;;2615819;54;20134;-71
2022/09/29 04:37:56;;;;;;;35.33;22.73;;;4.90;99.90;;;;;;2615637;39;20787;-70
2022/09/29 04:43:43;;;;;;;33.17;21.87;;;4.90;99.90;;;;;;2616328;39;20864;-71
2022/09/29 04:46:53;;;;;;;30.47;20.43;;;4.70;99.90;;;;;;2614827;54;20428;-70
2022/09/29 04:49:19;;;;;;;39.63;21.25;;;4.70;99.90;;;;;;2615526;54;20286;-72
2022/09/29 04:55:10;;;;;;;31.97;20.77;;;4.70;99.90;;;;;;2615915;54;20130;-71
2022/09/29 05:07:29;;;;;;;36.60;23.40;;;4.80;99.90;;;;;;2615091;54;20373;-72
2022/09/29 05:10:32;;;;;;;35.03;21.10;;;4.80;99.90;;;;;;2613920;54;21000;-70
2022/09/29 05:12:58;;;;;;;27.20;19.73;;;4.70;99.90;;;;;;2615871;39;20543;-71
2022/09/29 05:18:45;;;;;;;31.10;21.43;;;4.70;99.90;;;;;;2614978;54;20119;-71
2022/09/29 05:24:33;;;;;;;33.42;21.52;;;4.60;99.90;;;;;;2615208;54;20648;-70
2022/09/29 05:30:21;;;;;;;33.00;20.50;;;4.70;99.90;;;;;;2615202;54;20393;-71
2022/09/29 05:36:10;;;;;;;28.77;20.63;;;4.90;99.90;;;;;;2615268;54;20278;-70
2022/09/29 05:42:00;;;;;;;38.17;22.17;;;4.70;99.90;;;;;;2615642;54;20386;-71
2022/09/29 05:51:25;;;;;;;33.55;20.67;;;4.90;99.90;;;;;;2614922;54;20388;-70
2022/09/29 05:57:13;;;;;;;28.93;20.40;;;4.80;99.90;;;;;;2614916;54;20987;-70
2022/09/29 06:03:02;;;;;;;27.30;20.40;;;4.80;99.90;;;;;;2615373;54;20146;-72
2022/09/29 06:08:50;;;;;;;31.02;21.30;;;5.00;99.90;;;;;;2615263;54;20395;-71
2022/09/29 06:14:37;;;;;;;30.57;20.77;;;5.10;99.90;;;;;;2615243;54;20892;-70
2022/09/29 06:20:25;;;;;;;28.47;19.80;;;6.20;99.90;;;;;;2615656;39;20536;-70
2022/09/29 06:26:16;;;;;;;26.30;17.87;;;7.30;99.90;;;;;;2614627;39;20751;-71
2022/09/29 06:32:03;;;;;;;22.53;16.43;;;8.10;99.90;;;;;;2615609;54;20492;-70
2022/09/29 06:37:55;;;;;;;23.57;15.20;;;8.70;99.90;;;;;;2615549;39;20549;-71
2022/09/29 06:43:42;;;;;;;19.30;14.60;;;9.20;99.90;;;;;;2614939;54;20383;-71
2022/09/29 06:46:53;;;;;;;20.63;15.23;;;9.40;99.90;;;;;;2615385;54;20147;-70
2022/09/29 06:49:19;;;;;;;16.88;13.30;;;9.70;99.90;;;;;;2615133;54;20162;-70
2022/09/29 06:55:07;;;;;;;15.00;13.50;;;10.40;99.90;;;;;;2614963;54;20447;-70
2022/09/29 07:00:59;;;;;;;14.80;13.30;;;11.30;99.90;;;;;;2614073;39;20595;-70
2022/09/29 07:06:48;;;;;;;15.20;13.70;;;11.80;99.90;;;;;;2615789;54;20471;-71
2022/09/29 07:12:35;;;;;;;16.93;15.23;;;11.90;99.90;;;;;;2615772;54;20387;-71
2022/09/29 07:18:23;;;;;;;14.80;13.30;;;12.30;99.90;;;;;;2615714;54;20142;-70
2022/09/29 07:24:10;;;;;;;17.67;12.53;;;13.40;99.90;;;;;;2616225;39;20215;-72
2022/09/29 07:29:58;;;;;;;13.90;12.50;;;13.60;99.90;;;;;;2615906;54;20135;-71
2022/09/29 07:35:50;;;;;;;12.80;11.67;;;13.50;99.90;;;;;;2615337;54;20418;-70
2022/09/29 07:41:38;;;;;;;12.90;11.60;;;13.30;99.90;;;;;;2615909;54;20122;-70
2022/09/29 07:57:51;;;;;;;11.00;9.90;;;14.80;98.10;;;;;;2614287;54;20455;-70
2022/09/29 08:03:41;;;;;;;11.67;10.50;;;14.70;76.40;;;;;;2613998;54;20177;-70
2022/09/29 08:09:27;;;;;;;9.63;8.87;;;15.40;87.20;;;;;;2613656;46;20430;-72
2022/09/29 08:15:15;;;;;;;10.17;9.17;;;15.50;78.20;;;;;;2614231;54;20123;-71
2022/09/29 08:21:04;;;;;;;9.87;8.97;;;14.90;92.50;;;;;;2614316;54;20235;-72
2022/09/29 08:26:51;;;;;;;10.23;9.23;;;15.20;87.10;;;;;;2615519;54;20383;-72
2022/09/29 08:32:39;;;;;;;9.90;8.10;;;15.40;76.40;;;;;;2615563;54;20163;-71
2022/09/29 08:38:27;;;;;;;9.43;8.57;;;17.30;52.00;;;;;;2615529;54;20130;-70
2022/09/29 08:57:33;;;;;;;9.88;7.93;;;15.10;59.50;;;;;;2614067;54;20463;-70
2022/09/29 09:43:12;;;;;;;6.50;6.00;;;17.00;56.50;;;;;;2614510;54;20378;-71
2022/09/29 10:05:16;;;;;;;7.40;6.72;;;18.40;32.90;;;;;;2613575;54;20146;-72
2022/09/29 10:17:41;;;;;;;7.10;5.73;;;16.60;42.00;;;;;;2613620;54;20410;-72
2022/09/29 10:23:35;;;;;;;6.10;5.00;;;15.10;46.90;;;;;;2615144;54;20410;-71
2022/09/29 10:29:41;;;;;;;6.43;5.83;;;14.50;63.00;;;;;;2615209;54;20371;-72
2022/09/29 10:35:40;;;;;;;8.20;6.03;;;14.90;64.00;;;;;;2615438;39;20805;-71
2022/09/29 10:41:30;;;;;;;5.13;4.73;;;14.10;62.80;;;;;;2616514;39;20786;-71
2022/09/29 10:53:44;;;;;;;5.70;4.03;;;15.00;43.80;;;;;;2616117;54;20430;-72
2022/09/29 10:59:32;;;;;;;4.70;4.13;;;14.40;57.50;;;;;;2616115;54;20633;-71
2022/09/29 11:05:25;;;;;;;8.03;4.90;;;14.30;62.00;;;;;;2616239;46;20141;-70
2022/09/29 11:08:28;;;;;;;6.90;5.00;;;14.70;57.10;;;;;;2615199;47;20422;-71
2022/09/29 11:17:38;;;;;;;4.70;4.30;;;15.50;51.50;;;;;;2616183;39;20762;-70
2022/09/29 11:30:18;;;;;;;5.15;3.65;;;18.10;34.30;;;;;;2615416;54;20446;-71
2022/09/29 11:47:03;;;;;;;4.27;3.93;;;17.10;24.10;;;;;;2614751;54;20177;-72
2022/09/29 11:53:04;;;;;;;4.93;3.27;;;16.00;28.10;;;;;;2614693;54;20486;-71
2022/09/29 12:11:43;;;;;;;4.63;4.10;;;17.70;22.00;;;;;;2614371;54;20529;-72
2022/09/29 12:17:36;;;;;;;3.53;3.30;;;16.10;23.90;;;;;;2615884;39;20939;-72
2022/09/29 12:23:26;;;;;;;4.55;4.15;;;15.50;30.90;;;;;;2615577;54;20386;-71
2022/09/29 12:29:14;;;;;;;3.87;3.57;;;17.00;24.50;;;;;;2616153;54;20531;-71
2022/09/29 12:35:05;;;;;;;3.20;3.00;;;18.80;21.80;;;;;;2615584;54;20202;-71
2022/09/29 12:51:45;;;;;;;3.87;3.47;;;16.90;24.40;;;;;;2614238;54;20407;-73
2022/09/29 12:57:37;;;;;;;6.93;3.27;;;15.80;26.10;;;;;;2613977;54;20904;-72
2022/09/29 13:14:13;;;;;;;4.00;3.60;;;15.10;27.60;;;;;;2614185;54;20415;-72
2022/09/29 13:20:43;;;;;;;9.60;2.90;;;15.20;36.70;;;;;;2613742;54;20412;-71
2022/09/29 13:26:40;;;;;;;4.00;3.60;;;15.40;36.90;;;;;;2615349;54;20435;-72
2022/09/29 13:32:30;;;;;;;3.63;3.33;;;15.40;35.90;;;;;;2616143;39;20773;-71
2022/09/29 13:38:23;;;;;;;7.43;4.00;;;15.40;35.20;;;;;;2615199;54;20170;-71
2022/09/29 13:44:16;;;;;;;4.13;3.73;;;15.70;31.70;;;;;;2615179;54;20263;-72
2022/09/29 14:03:34;;;;;;;5.00;4.70;;;16.90;23.30;;;;;;2615132;54;20442;-71
2022/09/29 14:09:22;;;;;;;5.87;4.83;;;17.10;18.70;;;;;;2614892;54;20407;-70
2022/09/29 14:15:16;;;;;;;4.80;4.40;;;17.30;20.20;;;;;;2614958;54;20129;-71
2022/09/29 14:21:09;;;;;;;7.43;4.20;;;16.40;20.30;;;;;;2615507;54;20386;-72
2022/09/29 14:33:42;;;;;;;4.57;3.87;;;18.70;12.30;;;;;;2615007;54;20624;-71
2022/09/29 14:39:30;;;;;;;6.17;5.00;;;19.20;12.50;;;;;;2615055;54;21079;-71
2022/09/29 15:01:27;;;;;;;7.63;4.55;;;19.70;16.90;;;;;;2615065;54;20958;-71
2022/09/29 15:07:19;;;;;;;4.30;3.90;;;21.30;10.70;;;;;;2613566;54;20382;-71
2022/09/29 15:13:18;;;;;;;4.80;3.93;;;20.60;13.30;;;;;;2613246;54;20134;-71
2022/09/29 15:25:46;;;;;;;5.77;4.00;;;16.30;18.10;;;;;;2613973;54;20389;-71
2022/09/29 15:31:33;;;;;;;4.90;3.43;;;16.80;18.40;;;;;;2614651;54;20402;-71
2022/09/29 15:37:20;;;;;;;6.80;4.00;;;17.50;15.10;;;;;;2614434;54;20468;-71
2022/09/29 15:50:02;;;;;;;4.77;4.17;;;17.20;17.40;;;;;;2614399;54;20469;-71
2022/09/29 15:55:50;;;;;;;7.37;4.20;;;16.80;17.10;;;;;;2616261;54;20438;-71
2022/09/29 16:01:37;;;;;;;4.63;4.23;;;17.40;18.80;;;;;;2615738;54;20132;-71
2022/09/29 16:07:33;;;;;;;4.85;4.10;;;18.10;18.50;;;;;;2615593;54;20166;-71
2022/09/29 16:13:26;;;;;;;5.13;4.30;;;18.00;18.70;;;;;;2614560;54;20125;-72
2022/09/29 16:19:27;;;;;;;3.90;3.50;;;18.00;19.60;;;;;;2613887;54;20415;-71
2022/09/29 16:22:51;;;;;;;4.20;3.90;;;18.00;17.40;;;;;;2614489;54;20231;-72
2022/09/29 16:35:41;;;;;;;4.67;3.93;;;16.00;23.90;;;;;;2612040;54;20395;-71
2022/09/29 16:39:02;;;;;;;9.40;4.30;;;16.10;24.70;;;;;;2612150;39;20814;-72
2022/09/29 16:44:51;;;;;;;8.23;4.50;;;14.90;25.80;;;;;;2615836;39;20865;-74
2022/09/29 17:00:45;;;;;;;6.47;4.77;;;13.90;49.00;;;;;;2615686;54;20439;-71
2022/09/29 17:06:33;;;;;;;5.20;4.70;;;13.30;67.10;;;;;;2615352;54;20475;-71
2022/09/29 17:12:22;;;;;;;4.50;4.10;;;12.70;90.80;;;;;;2615221;54;20379;-71
2022/09/29 17:18:11;;;;;;;8.90;5.10;;;12.20;99.90;;;;;;2615597;54;20394;-71
2022/09/29 17:23:59;;;;;;;5.23;4.73;;;11.90;99.90;;;;;;2613919;39;20787;-72
2022/09/29 17:29:46;;;;;;;6.80;5.07;;;11.60;99.90;;;;;;2614582;54;20127;-71
2022/09/29 17:35:39;;;;;;;6.00;5.30;;;11.40;99.90;;;;;;2613869;54;20129;-72
2022/09/29 17:41:27;;;;;;;9.43;7.10;;;11.20;99.90;;;;;;2615475;54;20406;-72
2022/09/29 17:47:16;;;;;;;7.17;6.33;;;11.00;99.90;;;;;;2615391;54;20145;-72
2022/09/29 17:53:25;;;;;;;10.03;6.73;;;10.70;99.90;;;;;;2613884;54;21088;-70
2022/09/29 17:59:13;;;;;;;10.37;7.63;;;10.40;99.90;;;;;;2613019;39;20438;-71
2022/09/29 18:05:00;;;;;;;8.70;7.23;;;10.20;99.90;;;;;;2613716;54;20412;-71
2022/09/29 18:17:34;;;;;;;15.33;7.67;;;9.90;99.90;;;;;;2613402;54;20431;-70
2022/09/29 18:23:25;;;;;;;20.80;15.60;;;9.60;99.90;;;;;;2614202;54;20172;-72
2022/09/29 18:29:16;;;;;;;18.80;14.67;;;9.60;99.90;;;;;;2611858;54;21515;-71
2022/09/29 18:41:20;;;;;;;14.03;11.30;;;9.30;99.90;;;;;;2614318;39;20824;-72
2022/09/29 18:47:11;;;;;;;16.58;12.35;;;9.30;99.90;;;;;;2613816;54;20398;-72
2022/09/29 18:49:57;;;;;;;14.10;10.70;;;9.10;99.90;;;;;;2613774;54;20158;-71
2022/09/29 18:52:23;;;;;;;12.02;10.00;;;9.00;99.90;;;;;;2614354;47;20418;-72
2022/09/29 18:58:12;;;;;;;16.47;12.63;;;9.00;99.90;;;;;;2615140;54;20239;-71
2022/09/29 19:04:00;;;;;;;15.30;9.98;;;8.90;99.90;;;;;;2615713;54;20387;-73
2022/09/29 19:09:48;;;;;;;14.80;11.10;;;8.80;99.90;;;;;;2615925;54;20427;-71
2022/09/29 19:15:38;;;;;;;12.63;10.17;;;8.50;99.90;;;;;;2615604;54;20136;-73
2022/09/29 19:21:26;;;;;;;10.73;9.33;;;8.40;99.90;;;;;;2615747;54;20376;-73
2022/09/29 19:27:13;;;;;;;11.57;9.50;;;8.30;99.90;;;;;;2615209;54;20850;-72
2022/09/29 19:33:01;;;;;;;28.52;19.75;;;8.10;99.90;;;;;;2615488;54;20126;-71
2022/09/29 19:38:49;;;;;;;15.80;12.37;;;8.00;99.90;;;;;;2615844;39;20510;-71
2022/09/29 19:44:38;;;;;;;12.93;11.63;;;7.90;99.90;;;;;;2616278;39;20563;-71
2022/09/29 19:54:34;;;;;;;13.70;9.20;;;7.70;99.90;;;;;;2615733;39;20954;-72
2022/09/29 20:00:22;;;;;;;10.70;9.50;;;7.80;99.90;;;;;;2613904;54;20951;-71
2022/09/29 20:06:10;;;;;;;10.77;9.67;;;7.70;99.90;;;;;;2613430;54;20207;-72
2022/09/29 20:11:59;;;;;;;12.67;8.70;;;7.50;99.90;;;;;;2614398;54;20367;-72
2022/09/29 20:17:48;;;;;;;11.53;9.53;;;7.60;99.90;;;;;;2614187;54;20940;-72
2022/09/29 20:23:38;;;;;;;11.82;9.68;;;7.70;99.90;;;;;;2612927;54;21078;-71
2022/09/29 20:29:28;;;;;;;10.83;9.70;;;7.70;99.90;;;;;;2612167;54;20960;-72
2022/09/29 20:35:15;;;;;;;9.18;8.27;;;7.40;99.90;;;;;;2613981;39;20664;-72
2022/09/29 20:41:04;;;;;;;13.17;11.87;;;7.20;99.90;;;;;;2615200;54;20623;-72
2022/09/29 20:46:53;;;;;;;16.00;9.63;;;7.00;99.90;;;;;;2613990;54;20406;-72
2022/09/29 20:49:58;;;;;;;10.83;9.83;;;7.00;99.90;;;;;;2614292;47;20177;-72
2022/09/29 20:52:24;;;;;;;12.50;10.40;;;7.00;99.90;;;;;;2613148;47;21003;-71
2022/09/29 20:58:12;;;;;;;13.20;10.47;;;6.80;99.90;;;;;;2614769;54;20162;-72
2022/09/29 21:04:04;;;;;;;15.60;11.75;;;6.80;99.90;;;;;;2614777;54;20523;-71
2022/09/29 21:09:52;;;;;;;13.93;12.53;;;7.10;99.90;;;;;;2615615;54;20553;-70
2022/09/29 21:15:41;;;;;;;12.50;11.13;;;7.00;99.90;;;;;;2614422;39;20751;-72
2022/09/29 21:21:30;;;;;;;15.47;11.27;;;6.70;99.90;;;;;;2615033;54;20375;-70
2022/09/29 21:27:17;;;;;;;12.93;11.20;;;6.70;99.90;;;;;;2614975;54;20423;-72
2022/09/29 21:33:05;;;;;;;18.60;13.90;;;7.00;99.90;;;;;;2613766;39;20522;-71
2022/09/29 21:38:53;;;;;;;15.00;12.23;;;7.00;99.90;;;;;;2611861;54;20139;-73
2022/09/29 21:44:41;;;;;;;16.30;12.30;;;7.10;99.90;;;;;;2614241;54;20635;-72
2022/09/29 21:54:36;;;;;;;22.50;14.10;;;6.60;99.90;;;;;;2613641;31;20604;-72
2022/09/29 22:00:26;;;;;;;17.03;12.13;;;6.50;99.90;;;;;;2613928;54;20391;-71
2022/09/29 22:06:16;;;;;;;21.07;13.27;;;6.50;99.90;;;;;;2612729;54;20431;-71
2022/09/29 22:12:05;;;;;;;14.40;12.80;;;6.40;99.90;;;;;;2614250;54;20398;-72
2022/09/29 22:17:52;;;;;;;22.60;13.30;;;6.40;99.90;;;;;;2614679;54;20135;-72
2022/09/29 22:23:40;;;;;;;13.60;12.00;;;6.20;99.90;;;;;;2614365;54;21440;-71
2022/09/29 22:29:28;;;;;;;17.10;13.40;;;6.20;99.90;;;;;;2615512;39;20757;-71
2022/09/29 22:35:16;;;;;;;17.93;13.43;;;6.10;99.90;;;;;;2615370;54;20159;-72
2022/09/29 22:41:14;;;;;;;15.87;12.47;;;6.10;99.90;;;;;;2616307;54;20494;-70
2022/09/29 22:47:04;;;;;;;21.43;12.43;;;6.00;99.90;;;;;;2614875;54;20409;-70
2022/09/29 22:53:03;;;;;;;15.10;12.80;;;5.90;99.90;;;;;;2613726;54;21078;-72
2022/09/29 22:58:50;;;;;;;18.37;13.00;;;6.10;99.90;;;;;;2614432;39;20640;-70
2022/09/29 23:04:37;;;;;;;19.10;14.60;;;6.30;99.90;;;;;;2613996;54;20118;-71
2022/09/29 23:10:25;;;;;;;17.00;12.60;;;5.90;99.90;;;;;;2613890;54;20162;-72
2022/09/29 23:16:13;;;;;;;17.70;13.37;;;5.80;99.90;;;;;;2613975;54;20155;-71
2022/09/29 23:22:00;;;;;;;17.80;12.90;;;5.70;99.90;;;;;;2612950;54;20134;-71
2022/09/29 23:27:47;;;;;;;15.37;12.40;;;5.60;99.90;;;;;;2614455;39;20877;-71
2022/09/29 23:33:36;;;;;;;19.07;12.90;;;5.70;99.90;;;;;;2614752;54;20147;-72
2022/09/29 23:39:23;;;;;;;19.53;14.10;;;5.60;99.90;;;;;;2615004;54;20429;-72
2022/09/29 23:45:11;;;;;;;15.20;12.87;;;5.50;99.90;;;;;;2615551;54;20148;-72
2022/09/29 23:54:33;;;;;;;18.83;14.47;;;5.30;99.90;;;;;;2615321;54;20716;-71
